Aviation Digital Data Service (ADDS)

Output produced by TAFs form (1129 UTC 19 January 2018)
found at http://www.aviationweather.gov/adds/tafs/
 
RJOC 191100Z VRB01KT 9999 FEW030 BKN040 BKN050 07/04 Q1018
TAF RJOC 190505Z 1906/2012 05006KT 9999 FEW030 SCT045 
     BECMG 1910/1912 17006KT